sensor_id;sensor_type;location;lat;lon;timestamp;P1;durP1;ratioP1;P2;durP2;ratioP2
26690;SDS011;14307;51.718;8.938;2024-01-10T00:01:25;29.52;;;26.77;;
26690;SDS011;14307;51.718;8.938;2024-01-10T00:03:56;30.73;;;27.60;;
26690;SDS011;14307;51.718;8.938;2024-01-10T00:06:23;31.05;;;28.17;;
26690;SDS011;14307;51.718;8.938;2024-01-10T00:08:50;30.10;;;27.20;;
26690;SDS011;14307;51.718;8.938;2024-01-10T00:11:17;31.27;;;28.13;;
26690;SDS011;14307;51.718;8.938;2024-01-10T00:13:44;31.02;;;27.73;;
26690;SDS011;14307;51.718;8.938;2024-01-10T00:16:11;30.25;;;27.17;;
26690;SDS011;14307;51.718;8.938;2024-01-10T00:18:44;32.60;;;29.15;;
26690;SDS011;14307;51.718;8.938;2024-01-10T00:21:12;31.65;;;28.48;;
26690;SDS011;14307;51.718;8.938;2024-01-10T00:23:38;35.13;;;27.88;;
26690;SDS011;14307;51.718;8.938;2024-01-10T00:26:05;30.35;;;27.27;;
26690;SDS011;14307;51.718;8.938;2024-01-10T00:28:33;31.27;;;28.08;;
26690;SDS011;14307;51.718;8.938;2024-01-10T00:31:00;30.77;;;27.77;;
26690;SDS011;14307;51.718;8.938;2024-01-10T00:33:27;31.70;;;28.63;;
26690;SDS011;14307;51.718;8.938;2024-01-10T00:35:55;30.45;;;27.50;;
26690;SDS011;14307;51.718;8.938;2024-01-10T00:38:21;30.90;;;27.67;;
26690;SDS011;14307;51.718;8.938;2024-01-10T00:40:48;31.58;;;28.58;;
26690;SDS011;14307;51.718;8.938;2024-01-10T00:43:15;31.80;;;28.63;;
26690;SDS011;14307;51.718;8.938;2024-01-10T00:45:42;32.33;;;28.90;;
26690;SDS011;14307;51.718;8.938;2024-01-10T00:48:09;31.67;;;28.52;;
26690;SDS011;14307;51.718;8.938;2024-01-10T00:50:35;33.10;;;29.15;;
26690;SDS011;14307;51.718;8.938;2024-01-10T00:53:02;32.60;;;29.17;;
26690;SDS011;14307;51.718;8.938;2024-01-10T00:55:29;32.13;;;28.73;;
26690;SDS011;14307;51.718;8.938;2024-01-10T00:57:56;33.15;;;28.48;;
26690;SDS011;14307;51.718;8.938;2024-01-10T01:00:23;34.42;;;28.55;;
26690;SDS011;14307;51.718;8.938;2024-01-10T01:02:50;32.50;;;29.17;;
26690;SDS011;14307;51.718;8.938;2024-01-10T01:05:17;31.75;;;28.73;;
26690;SDS011;14307;51.718;8.938;2024-01-10T01:07:44;32.22;;;29.00;;
26690;SDS011;14307;51.718;8.938;2024-01-10T01:10:11;31.83;;;28.75;;
26690;SDS011;14307;51.718;8.938;2024-01-10T01:12:40;32.25;;;28.80;;
26690;SDS011;14307;51.718;8.938;2024-01-10T01:15:07;32.53;;;28.80;;
26690;SDS011;14307;51.718;8.938;2024-01-10T01:17:34;31.20;;;28.20;;
26690;SDS011;14307;51.718;8.938;2024-01-10T01:20:01;31.52;;;28.48;;
26690;SDS011;14307;51.718;8.938;2024-01-10T01:22:31;31.17;;;28.15;;
26690;SDS011;14307;51.718;8.938;2024-01-10T01:24:58;32.90;;;29.30;;
26690;SDS011;14307;51.718;8.938;2024-01-10T01:27:25;31.27;;;28.02;;
26690;SDS011;14307;51.718;8.938;2024-01-10T01:29:55;31.98;;;28.67;;
26690;SDS011;14307;51.718;8.938;2024-01-10T01:32:22;34.85;;;29.95;;
26690;SDS011;14307;51.718;8.938;2024-01-10T01:34:51;35.20;;;29.70;;
26690;SDS011;14307;51.718;8.938;2024-01-10T01:37:18;31.77;;;28.38;;
26690;SDS011;14307;51.718;8.938;2024-01-10T01:39:45;34.72;;;29.75;;
26690;SDS011;14307;51.718;8.938;2024-01-10T01:42:12;32.17;;;28.90;;
26690;SDS011;14307;51.718;8.938;2024-01-10T01:44:39;30.40;;;27.45;;
26690;SDS011;14307;51.718;8.938;2024-01-10T01:47:05;31.40;;;28.10;;
26690;SDS011;14307;51.718;8.938;2024-01-10T01:49:33;32.63;;;29.23;;
26690;SDS011;14307;51.718;8.938;2024-01-10T01:52:00;31.25;;;28.23;;
26690;SDS011;14307;51.718;8.938;2024-01-10T01:54:27;34.92;;;29.80;;
26690;SDS011;14307;51.718;8.938;2024-01-10T01:56:55;32.42;;;28.90;;
26690;SDS011;14307;51.718;8.938;2024-01-10T01:59:22;32.67;;;29.25;;
26690;SDS011;14307;51.718;8.938;2024-01-10T02:01:49;33.20;;;29.63;;
26690;SDS011;14307;51.718;8.938;2024-01-10T02:04:19;35.47;;;30.65;;
26690;SDS011;14307;51.718;8.938;2024-01-10T02:06:46;33.50;;;30.00;;
26690;SDS011;14307;51.718;8.938;2024-01-10T02:09:13;32.95;;;29.50;;
26690;SDS011;14307;51.718;8.938;2024-01-10T02:11:40;33.47;;;29.92;;
26690;SDS011;14307;51.718;8.938;2024-01-10T02:14:07;34.42;;;30.40;;
26690;SDS011;14307;51.718;8.938;2024-01-10T02:16:34;34.00;;;30.35;;
26690;SDS011;14307;51.718;8.938;2024-01-10T02:19:01;34.63;;;29.55;;
26690;SDS011;14307;51.718;8.938;2024-01-10T02:21:44;40.25;;;32.30;;
26690;SDS011;14307;51.718;8.938;2024-01-10T02:24:11;36.53;;;30.88;;
26690;SDS011;14307;51.718;8.938;2024-01-10T02:26:38;35.80;;;28.48;;
26690;SDS011;14307;51.718;8.938;2024-01-10T02:29:06;41.13;;;31.42;;
26690;SDS011;14307;51.718;8.938;2024-01-10T02:31:33;35.05;;;30.15;;
26690;SDS011;14307;51.718;8.938;2024-01-10T02:33:59;39.25;;;31.30;;
26690;SDS011;14307;51.718;8.938;2024-01-10T02:36:26;37.08;;;31.27;;
26690;SDS011;14307;51.718;8.938;2024-01-10T02:38:53;37.17;;;31.98;;
26690;SDS011;14307;51.718;8.938;2024-01-10T02:41:22;43.65;;;32.33;;
26690;SDS011;14307;51.718;8.938;2024-01-10T02:43:49;40.20;;;32.70;;
26690;SDS011;14307;51.718;8.938;2024-01-10T02:49:07;38.08;;;31.00;;
26690;SDS011;14307;51.718;8.938;2024-01-10T02:51:34;40.67;;;32.47;;
26690;SDS011;14307;51.718;8.938;2024-01-10T02:54:01;39.70;;;32.63;;
26690;SDS011;14307;51.718;8.938;2024-01-10T02:56:28;40.63;;;33.38;;
26690;SDS011;14307;51.718;8.938;2024-01-10T02:58:57;40.92;;;32.30;;
26690;SDS011;14307;51.718;8.938;2024-01-10T03:01:29;37.13;;;32.28;;
26690;SDS011;14307;51.718;8.938;2024-01-10T03:03:56;40.38;;;31.98;;
26690;SDS011;14307;51.718;8.938;2024-01-10T03:06:23;39.60;;;33.00;;
26690;SDS011;14307;51.718;8.938;2024-01-10T03:08:51;41.45;;;33.35;;
26690;SDS011;14307;51.718;8.938;2024-01-10T03:11:20;40.95;;;32.50;;
26690;SDS011;14307;51.718;8.938;2024-01-10T03:13:47;40.88;;;33.85;;
26690;SDS011;14307;51.718;8.938;2024-01-10T03:16:16;43.45;;;33.67;;
26690;SDS011;14307;51.718;8.938;2024-01-10T03:18:43;44.13;;;33.00;;
26690;SDS011;14307;51.718;8.938;2024-01-10T03:21:12;44.60;;;34.97;;
26690;SDS011;14307;51.718;8.938;2024-01-10T03:23:39;46.38;;;33.05;;
26690;SDS011;14307;51.718;8.938;2024-01-10T03:26:06;45.75;;;35.65;;
26690;SDS011;14307;51.718;8.938;2024-01-10T03:28:33;50.97;;;36.20;;
26690;SDS011;14307;51.718;8.938;2024-01-10T03:31:02;39.65;;;33.42;;
26690;SDS011;14307;51.718;8.938;2024-01-10T03:33:32;39.30;;;32.60;;
26690;SDS011;14307;51.718;8.938;2024-01-10T03:35:59;45.17;;;33.83;;
26690;SDS011;14307;51.718;8.938;2024-01-10T03:38:26;50.38;;;35.05;;
26690;SDS011;14307;51.718;8.938;2024-01-10T03:40:52;49.50;;;34.22;;
26690;SDS011;14307;51.718;8.938;2024-01-10T03:43:19;50.67;;;35.92;;
26690;SDS011;14307;51.718;8.938;2024-01-10T03:45:46;46.30;;;34.42;;
26690;SDS011;14307;51.718;8.938;2024-01-10T03:48:13;44.13;;;33.47;;
26690;SDS011;14307;51.718;8.938;2024-01-10T03:50:40;51.08;;;35.42;;
26690;SDS011;14307;51.718;8.938;2024-01-10T03:53:06;43.47;;;34.45;;
26690;SDS011;14307;51.718;8.938;2024-01-10T03:55:33;46.42;;;35.85;;
26690;SDS011;14307;51.718;8.938;2024-01-10T03:58:00;45.35;;;33.92;;
26690;SDS011;14307;51.718;8.938;2024-01-10T04:00:27;46.83;;;34.35;;
26690;SDS011;14307;51.718;8.938;2024-01-10T04:02:53;48.17;;;35.70;;
26690;SDS011;14307;51.718;8.938;2024-01-10T04:05:20;48.08;;;34.80;;
26690;SDS011;14307;51.718;8.938;2024-01-10T04:07:47;49.08;;;34.00;;
26690;SDS011;14307;51.718;8.938;2024-01-10T04:10:14;44.92;;;35.58;;
26690;SDS011;14307;51.718;8.938;2024-01-10T04:12:46;42.35;;;35.03;;
26690;SDS011;14307;51.718;8.938;2024-01-10T04:15:13;47.78;;;34.42;;
26690;SDS011;14307;51.718;8.938;2024-01-10T04:17:40;43.92;;;34.08;;
26690;SDS011;14307;51.718;8.938;2024-01-10T04:20:08;48.45;;;36.63;;
26690;SDS011;14307;51.718;8.938;2024-01-10T04:22:36;48.20;;;35.58;;
26690;SDS011;14307;51.718;8.938;2024-01-10T04:25:05;44.53;;;33.25;;
26690;SDS011;14307;51.718;8.938;2024-01-10T04:27:33;36.53;;;31.30;;
26690;SDS011;14307;51.718;8.938;2024-01-10T04:30:00;43.45;;;33.95;;
26690;SDS011;14307;51.718;8.938;2024-01-10T04:32:26;46.22;;;33.63;;
26690;SDS011;14307;51.718;8.938;2024-01-10T04:34:53;42.92;;;32.75;;
26690;SDS011;14307;51.718;8.938;2024-01-10T04:37:21;46.55;;;33.83;;
26690;SDS011;14307;51.718;8.938;2024-01-10T04:39:47;53.45;;;35.40;;
26690;SDS011;14307;51.718;8.938;2024-01-10T04:42:14;42.95;;;33.42;;
26690;SDS011;14307;51.718;8.938;2024-01-10T04:44:41;53.40;;;38.15;;
26690;SDS011;14307;51.718;8.938;2024-01-10T04:47:08;43.63;;;33.80;;
26690;SDS011;14307;51.718;8.938;2024-01-10T04:49:35;40.42;;;32.83;;
26690;SDS011;14307;51.718;8.938;2024-01-10T04:52:02;43.97;;;35.33;;
26690;SDS011;14307;51.718;8.938;2024-01-10T04:54:30;47.33;;;35.88;;
26690;SDS011;14307;51.718;8.938;2024-01-10T04:56:57;42.53;;;35.13;;
26690;SDS011;14307;51.718;8.938;2024-01-10T04:59:24;51.90;;;36.13;;
26690;SDS011;14307;51.718;8.938;2024-01-10T05:01:50;51.80;;;34.95;;
26690;SDS011;14307;51.718;8.938;2024-01-10T05:04:17;49.35;;;36.28;;
26690;SDS011;14307;51.718;8.938;2024-01-10T05:06:44;50.13;;;35.28;;
26690;SDS011;14307;51.718;8.938;2024-01-10T05:09:11;52.00;;;36.83;;
26690;SDS011;14307;51.718;8.938;2024-01-10T05:11:38;46.55;;;36.22;;
26690;SDS011;14307;51.718;8.938;2024-01-10T05:14:07;58.17;;;37.63;;
26690;SDS011;14307;51.718;8.938;2024-01-10T05:16:34;53.80;;;38.15;;
26690;SDS011;14307;51.718;8.938;2024-01-10T05:19:01;46.83;;;36.55;;
26690;SDS011;14307;51.718;8.938;2024-01-10T05:21:31;55.80;;;38.80;;
26690;SDS011;14307;51.718;8.938;2024-01-10T05:23:58;64.28;;;43.35;;
26690;SDS011;14307;51.718;8.938;2024-01-10T05:26:25;59.65;;;39.28;;
26690;SDS011;14307;51.718;8.938;2024-01-10T05:28:52;57.28;;;40.78;;
26690;SDS011;14307;51.718;8.938;2024-01-10T05:31:19;55.10;;;38.65;;
26690;SDS011;14307;51.718;8.938;2024-01-10T05:33:47;51.28;;;39.08;;
26690;SDS011;14307;51.718;8.938;2024-01-10T05:36:14;55.03;;;38.10;;
26690;SDS011;14307;51.718;8.938;2024-01-10T05:38:40;51.88;;;38.13;;
26690;SDS011;14307;51.718;8.938;2024-01-10T05:41:07;57.05;;;38.13;;
26690;SDS011;14307;51.718;8.938;2024-01-10T05:43:34;50.72;;;36.20;;
26690;SDS011;14307;51.718;8.938;2024-01-10T05:46:01;50.67;;;36.05;;
26690;SDS011;14307;51.718;8.938;2024-01-10T05:48:31;56.28;;;37.63;;
26690;SDS011;14307;51.718;8.938;2024-01-10T05:50:58;49.55;;;35.45;;
26690;SDS011;14307;51.718;8.938;2024-01-10T05:53:25;54.60;;;37.85;;
26690;SDS011;14307;51.718;8.938;2024-01-10T05:55:52;54.72;;;39.45;;
26690;SDS011;14307;51.718;8.938;2024-01-10T05:58:19;40.08;;;31.67;;
26690;SDS011;14307;51.718;8.938;2024-01-10T06:00:46;50.08;;;37.63;;
26690;SDS011;14307;51.718;8.938;2024-01-10T06:03:13;53.45;;;39.75;;
26690;SDS011;14307;51.718;8.938;2024-01-10T06:05:40;58.53;;;40.67;;
26690;SDS011;14307;51.718;8.938;2024-01-10T06:08:07;55.92;;;36.17;;
26690;SDS011;14307;51.718;8.938;2024-01-10T06:10:34;44.40;;;36.83;;
26690;SDS011;14307;51.718;8.938;2024-01-10T06:13:03;54.45;;;40.30;;
26690;SDS011;14307;51.718;8.938;2024-01-10T06:15:30;61.03;;;40.65;;
26690;SDS011;14307;51.718;8.938;2024-01-10T06:17:57;67.57;;;40.97;;
26690;SDS011;14307;51.718;8.938;2024-01-10T06:20:24;59.60;;;39.92;;
26690;SDS011;14307;51.718;8.938;2024-01-10T06:22:51;62.28;;;41.45;;
26690;SDS011;14307;51.718;8.938;2024-01-10T06:25:18;61.35;;;42.80;;
26690;SDS011;14307;51.718;8.938;2024-01-10T06:27:45;52.55;;;39.55;;
26690;SDS011;14307;51.718;8.938;2024-01-10T06:30:12;54.22;;;38.78;;
26690;SDS011;14307;51.718;8.938;2024-01-10T06:32:40;62.78;;;40.78;;
26690;SDS011;14307;51.718;8.938;2024-01-10T06:35:06;103.85;;;50.03;;
26690;SDS011;14307;51.718;8.938;2024-01-10T06:37:37;197.48;;;79.75;;
26690;SDS011;14307;51.718;8.938;2024-01-10T06:40:04;139.77;;;66.68;;
26690;SDS011;14307;51.718;8.938;2024-01-10T06:42:32;113.10;;;53.50;;
26690;SDS011;14307;51.718;8.938;2024-01-10T06:44:59;111.18;;;57.13;;
26690;SDS011;14307;51.718;8.938;2024-01-10T06:47:26;101.10;;;49.72;;
26690;SDS011;14307;51.718;8.938;2024-01-10T06:49:53;107.75;;;52.25;;
26690;SDS011;14307;51.718;8.938;2024-01-10T06:52:20;69.78;;;43.45;;
26690;SDS011;14307;51.718;8.938;2024-01-10T06:54:47;84.78;;;47.63;;
26690;SDS011;14307;51.718;8.938;2024-01-10T06:57:14;67.70;;;41.70;;
26690;SDS011;14307;51.718;8.938;2024-01-10T06:59:40;61.85;;;39.42;;
26690;SDS011;14307;51.718;8.938;2024-01-10T07:02:07;73.78;;;42.88;;
26690;SDS011;14307;51.718;8.938;2024-01-10T07:04:36;49.53;;;38.42;;
26690;SDS011;14307;51.718;8.938;2024-01-10T07:07:04;64.68;;;41.63;;
26690;SDS011;14307;51.718;8.938;2024-01-10T07:09:32;84.80;;;48.83;;
26690;SDS011;14307;51.718;8.938;2024-01-10T07:11:59;72.07;;;45.63;;
26690;SDS011;14307;51.718;8.938;2024-01-10T07:14:30;75.95;;;44.65;;
26690;SDS011;14307;51.718;8.938;2024-01-10T07:16:57;58.30;;;42.35;;
26690;SDS011;14307;51.718;8.938;2024-01-10T07:19:24;62.53;;;38.95;;
26690;SDS011;14307;51.718;8.938;2024-01-10T07:21:51;51.05;;;39.05;;
26690;SDS011;14307;51.718;8.938;2024-01-10T07:24:20;66.13;;;42.95;;
26690;SDS011;14307;51.718;8.938;2024-01-10T07:26:47;60.78;;;41.28;;
26690;SDS011;14307;51.718;8.938;2024-01-10T07:29:14;68.93;;;42.70;;
26690;SDS011;14307;51.718;8.938;2024-01-10T07:31:41;61.85;;;42.38;;
26690;SDS011;14307;51.718;8.938;2024-01-10T07:34:08;55.92;;;37.10;;
26690;SDS011;14307;51.718;8.938;2024-01-10T07:36:42;60.13;;;40.85;;
26690;SDS011;14307;51.718;8.938;2024-01-10T07:39:09;55.42;;;39.47;;
26690;SDS011;14307;51.718;8.938;2024-01-10T07:41:36;60.17;;;42.05;;
26690;SDS011;14307;51.718;8.938;2024-01-10T07:44:03;62.35;;;42.45;;
26690;SDS011;14307;51.718;8.938;2024-01-10T07:46:30;65.47;;;39.58;;
26690;SDS011;14307;51.718;8.938;2024-01-10T07:48:57;64.95;;;41.35;;
26690;SDS011;14307;51.718;8.938;2024-01-10T07:51:26;58.80;;;39.92;;
26690;SDS011;14307;51.718;8.938;2024-01-10T07:53:53;63.95;;;42.30;;
26690;SDS011;14307;51.718;8.938;2024-01-10T07:56:20;70.95;;;51.55;;
26690;SDS011;14307;51.718;8.938;2024-01-10T07:58:47;55.88;;;37.65;;
26690;SDS011;14307;51.718;8.938;2024-01-10T08:01:15;57.33;;;40.03;;
26690;SDS011;14307;51.718;8.938;2024-01-10T08:03:41;57.50;;;39.47;;
26690;SDS011;14307;51.718;8.938;2024-01-10T08:06:08;43.33;;;34.67;;
26690;SDS011;14307;51.718;8.938;2024-01-10T08:08:49;40.45;;;36.45;;
26690;SDS011;14307;51.718;8.938;2024-01-10T08:11:16;67.10;;;47.90;;
26690;SDS011;14307;51.718;8.938;2024-01-10T08:13:43;56.20;;;46.85;;
26690;SDS011;14307;51.718;8.938;2024-01-10T08:16:10;76.25;;;59.15;;
26690;SDS011;14307;51.718;8.938;2024-01-10T08:18:39;68.25;;;60.15;;
26690;SDS011;14307;51.718;8.938;2024-01-10T08:21:06;71.30;;;59.85;;
26690;SDS011;14307;51.718;8.938;2024-01-10T08:23:33;72.18;;;64.32;;
26690;SDS011;14307;51.718;8.938;2024-01-10T08:26:00;65.28;;;58.63;;
26690;SDS011;14307;51.718;8.938;2024-01-10T08:28:27;64.97;;;56.67;;
26690;SDS011;14307;51.718;8.938;2024-01-10T08:30:54;62.97;;;54.80;;
26690;SDS011;14307;51.718;8.938;2024-01-10T08:33:30;70.85;;;60.30;;
26690;SDS011;14307;51.718;8.938;2024-01-10T08:35:57;75.13;;;57.53;;
26690;SDS011;14307;51.718;8.938;2024-01-10T08:38:25;67.32;;;56.35;;
26690;SDS011;14307;51.718;8.938;2024-01-10T08:40:52;67.82;;;55.30;;
26690;SDS011;14307;51.718;8.938;2024-01-10T08:43:19;59.65;;;53.45;;
26690;SDS011;14307;51.718;8.938;2024-01-10T08:45:46;59.25;;;53.00;;
26690;SDS011;14307;51.718;8.938;2024-01-10T08:48:14;63.38;;;56.95;;
26690;SDS011;14307;51.718;8.938;2024-01-10T08:50:42;67.55;;;59.17;;
26690;SDS011;14307;51.718;8.938;2024-01-10T08:53:10;64.30;;;57.38;;
26690;SDS011;14307;51.718;8.938;2024-01-10T08:55:37;64.35;;;57.67;;
26690;SDS011;14307;51.718;8.938;2024-01-10T08:58:04;65.38;;;58.13;;
26690;SDS011;14307;51.718;8.938;2024-01-10T09:00:31;63.15;;;56.75;;
26690;SDS011;14307;51.718;8.938;2024-01-10T09:02:58;64.85;;;58.33;;
26690;SDS011;14307;51.718;8.938;2024-01-10T09:05:26;68.00;;;60.88;;
26690;SDS011;14307;51.718;8.938;2024-01-10T09:07:53;65.63;;;58.30;;
26690;SDS011;14307;51.718;8.938;2024-01-10T09:10:20;66.25;;;59.53;;
26690;SDS011;14307;51.718;8.938;2024-01-10T09:12:55;66.57;;;59.55;;
26690;SDS011;14307;51.718;8.938;2024-01-10T09:15:25;68.78;;;62.53;;
26690;SDS011;14307;51.718;8.938;2024-01-10T09:17:52;67.95;;;61.00;;
26690;SDS011;14307;51.718;8.938;2024-01-10T09:20:19;74.30;;;66.80;;
26690;SDS011;14307;51.718;8.938;2024-01-10T09:22:47;70.75;;;63.88;;
26690;SDS011;14307;51.718;8.938;2024-01-10T09:25:16;70.32;;;62.75;;
26690;SDS011;14307;51.718;8.938;2024-01-10T09:27:43;74.30;;;66.55;;
26690;SDS011;14307;51.718;8.938;2024-01-10T09:30:11;70.88;;;64.05;;
26690;SDS011;14307;51.718;8.938;2024-01-10T09:32:38;71.68;;;64.32;;
26690;SDS011;14307;51.718;8.938;2024-01-10T09:35:06;70.45;;;63.85;;
26690;SDS011;14307;51.718;8.938;2024-01-10T09:37:34;72.70;;;66.15;;
26690;SDS011;14307;51.718;8.938;2024-01-10T09:40:08;64.15;;;58.53;;
26690;SDS011;14307;51.718;8.938;2024-01-10T09:42:35;67.55;;;60.88;;
26690;SDS011;14307;51.718;8.938;2024-01-10T09:45:04;70.18;;;63.53;;
26690;SDS011;14307;51.718;8.938;2024-01-10T09:47:32;70.50;;;63.28;;
26690;SDS011;14307;51.718;8.938;2024-01-10T09:50:00;73.72;;;66.40;;
26690;SDS011;14307;51.718;8.938;2024-01-10T09:52:29;70.20;;;64.05;;
26690;SDS011;14307;51.718;8.938;2024-01-10T09:55:04;67.35;;;61.25;;
26690;SDS011;14307;51.718;8.938;2024-01-10T09:57:31;73.25;;;67.22;;
26690;SDS011;14307;51.718;8.938;2024-01-10T10:00:00;78.60;;;71.50;;
26690;SDS011;14307;51.718;8.938;2024-01-10T10:02:32;80.75;;;73.45;;
26690;SDS011;14307;51.718;8.938;2024-01-10T10:05:08;85.60;;;77.95;;
26690;SDS011;14307;51.718;8.938;2024-01-10T10:07:50;79.60;;;72.03;;
26690;SDS011;14307;51.718;8.938;2024-01-10T10:10:19;76.88;;;71.05;;
26690;SDS011;14307;51.718;8.938;2024-01-10T10:12:51;80.30;;;73.32;;
26690;SDS011;14307;51.718;8.938;2024-01-10T10:15:21;77.13;;;70.47;;
26690;SDS011;14307;51.718;8.938;2024-01-10T10:17:50;77.55;;;70.72;;
26690;SDS011;14307;51.718;8.938;2024-01-10T10:20:24;76.40;;;70.80;;
26690;SDS011;14307;51.718;8.938;2024-01-10T10:25:31;94.57;;;87.50;;
26690;SDS011;14307;51.718;8.938;2024-01-10T10:28:16;79.00;;;73.40;;
26690;SDS011;14307;51.718;8.938;2024-01-10T10:30:55;80.88;;;74.97;;
26690;SDS011;14307;51.718;8.938;2024-01-10T10:33:22;84.28;;;78.35;;
26690;SDS011;14307;51.718;8.938;2024-01-10T10:35:50;81.63;;;75.97;;
26690;SDS011;14307;51.718;8.938;2024-01-10T10:38:21;85.43;;;78.63;;
26690;SDS011;14307;51.718;8.938;2024-01-10T10:40:50;85.70;;;79.57;;
26690;SDS011;14307;51.718;8.938;2024-01-10T10:43:18;79.47;;;73.45;;
26690;SDS011;14307;51.718;8.938;2024-01-10T10:45:49;84.63;;;77.70;;
26690;SDS011;14307;51.718;8.938;2024-01-10T10:48:17;85.20;;;78.78;;
26690;SDS011;14307;51.718;8.938;2024-01-10T10:50:55;88.85;;;81.47;;
26690;SDS011;14307;51.718;8.938;2024-01-10T10:53:30;84.28;;;77.63;;
26690;SDS011;14307;51.718;8.938;2024-01-10T10:56:00;79.75;;;73.07;;
26690;SDS011;14307;51.718;8.938;2024-01-10T10:58:29;80.85;;;74.28;;
26690;SDS011;14307;51.718;8.938;2024-01-10T11:01:08;71.72;;;66.43;;
26690;SDS011;14307;51.718;8.938;2024-01-10T11:03:36;78.60;;;72.15;;
26690;SDS011;14307;51.718;8.938;2024-01-10T11:06:07;81.78;;;75.43;;
26690;SDS011;14307;51.718;8.938;2024-01-10T11:22:24;73.03;;;67.15;;
26690;SDS011;14307;51.718;8.938;2024-01-10T11:25:12;74.15;;;68.78;;
26690;SDS011;14307;51.718;8.938;2024-01-10T11:27:41;76.53;;;70.68;;
26690;SDS011;14307;51.718;8.938;2024-01-10T11:30:10;72.88;;;66.88;;
26690;SDS011;14307;51.718;8.938;2024-01-10T11:32:38;74.45;;;68.55;;
26690;SDS011;14307;51.718;8.938;2024-01-10T11:35:18;72.95;;;66.97;;
26690;SDS011;14307;51.718;8.938;2024-01-10T11:37:47;79.20;;;72.05;;
26690;SDS011;14307;51.718;8.938;2024-01-10T11:40:16;74.75;;;69.05;;
26690;SDS011;14307;51.718;8.938;2024-01-10T11:43:12;77.13;;;70.63;;
26690;SDS011;14307;51.718;8.938;2024-01-10T11:45:49;78.93;;;72.47;;
26690;SDS011;14307;51.718;8.938;2024-01-10T11:48:26;79.60;;;73.15;;
26690;SDS011;14307;51.718;8.938;2024-01-10T11:50:55;70.18;;;64.93;;
26690;SDS011;14307;51.718;8.938;2024-01-10T11:53:40;78.18;;;71.47;;
26690;SDS011;14307;51.718;8.938;2024-01-10T11:56:09;78.32;;;71.53;;
26690;SDS011;14307;51.718;8.938;2024-01-10T12:01:37;72.60;;;66.47;;
26690;SDS011;14307;51.718;8.938;2024-01-10T12:04:08;72.18;;;66.13;;
26690;SDS011;14307;51.718;8.938;2024-01-10T12:06:49;68.60;;;63.40;;
26690;SDS011;14307;51.718;8.938;2024-01-10T12:09:16;73.28;;;66.90;;
26690;SDS011;14307;51.718;8.938;2024-01-10T12:11:43;74.43;;;67.75;;
26690;SDS011;14307;51.718;8.938;2024-01-10T12:14:11;75.07;;;68.20;;
26690;SDS011;14307;51.718;8.938;2024-01-10T12:16:40;73.47;;;67.15;;
26690;SDS011;14307;51.718;8.938;2024-01-10T12:19:07;72.85;;;66.82;;
26690;SDS011;14307;51.718;8.938;2024-01-10T12:21:35;76.03;;;69.13;;
26690;SDS011;14307;51.718;8.938;2024-01-10T12:24:05;74.88;;;68.53;;
26690;SDS011;14307;51.718;8.938;2024-01-10T12:26:32;76.30;;;69.57;;
26690;SDS011;14307;51.718;8.938;2024-01-10T12:29:02;69.03;;;63.55;;
26690;SDS011;14307;51.718;8.938;2024-01-10T12:31:33;72.38;;;65.00;;
26690;SDS011;14307;51.718;8.938;2024-01-10T12:34:00;66.80;;;60.50;;
26690;SDS011;14307;51.718;8.938;2024-01-10T12:36:31;64.68;;;58.85;;
26690;SDS011;14307;51.718;8.938;2024-01-10T12:38:58;65.65;;;59.72;;
26690;SDS011;14307;51.718;8.938;2024-01-10T12:41:25;64.45;;;58.22;;
26690;SDS011;14307;51.718;8.938;2024-01-10T12:43:59;69.93;;;63.40;;
26690;SDS011;14307;51.718;8.938;2024-01-10T12:46:29;64.65;;;57.95;;
26690;SDS011;14307;51.718;8.938;2024-01-10T12:49:05;64.40;;;58.33;;
26690;SDS011;14307;51.718;8.938;2024-01-10T12:51:34;57.55;;;51.60;;
26690;SDS011;14307;51.718;8.938;2024-01-10T12:54:16;65.40;;;58.72;;
26690;SDS011;14307;51.718;8.938;2024-01-10T12:56:48;61.05;;;54.95;;
26690;SDS011;14307;51.718;8.938;2024-01-10T12:59:16;62.53;;;56.83;;
26690;SDS011;14307;51.718;8.938;2024-01-10T13:01:44;58.42;;;53.28;;
26690;SDS011;14307;51.718;8.938;2024-01-10T13:04:11;58.92;;;53.53;;
26690;SDS011;14307;51.718;8.938;2024-01-10T13:06:39;57.17;;;51.83;;
26690;SDS011;14307;51.718;8.938;2024-01-10T13:09:08;64.57;;;57.97;;
26690;SDS011;14307;51.718;8.938;2024-01-10T13:11:36;59.10;;;54.08;;
26690;SDS011;14307;51.718;8.938;2024-01-10T13:14:04;65.15;;;59.70;;
26690;SDS011;14307;51.718;8.938;2024-01-10T13:16:31;58.67;;;53.15;;
26690;SDS011;14307;51.718;8.938;2024-01-10T13:19:14;59.10;;;53.50;;
26690;SDS011;14307;51.718;8.938;2024-01-10T13:21:42;60.08;;;54.58;;
26690;SDS011;14307;51.718;8.938;2024-01-10T13:24:11;62.75;;;56.78;;
26690;SDS011;14307;51.718;8.938;2024-01-10T13:26:38;63.05;;;57.40;;
26690;SDS011;14307;51.718;8.938;2024-01-10T13:29:06;62.70;;;57.08;;
26690;SDS011;14307;51.718;8.938;2024-01-10T13:31:33;64.18;;;58.50;;
26690;SDS011;14307;51.718;8.938;2024-01-10T13:34:00;64.38;;;58.78;;
26690;SDS011;14307;51.718;8.938;2024-01-10T13:36:30;61.03;;;55.50;;
26690;SDS011;14307;51.718;8.938;2024-01-10T13:38:57;63.92;;;58.17;;
26690;SDS011;14307;51.718;8.938;2024-01-10T13:41:24;62.53;;;57.15;;
26690;SDS011;14307;51.718;8.938;2024-01-10T13:43:52;59.15;;;54.08;;
26690;SDS011;14307;51.718;8.938;2024-01-10T13:46:20;61.33;;;55.97;;
26690;SDS011;14307;51.718;8.938;2024-01-10T13:48:49;62.28;;;56.63;;
26690;SDS011;14307;51.718;8.938;2024-01-10T13:51:16;63.83;;;58.05;;
26690;SDS011;14307;51.718;8.938;2024-01-10T13:53:43;65.82;;;59.55;;
26690;SDS011;14307;51.718;8.938;2024-01-10T13:56:11;62.40;;;56.42;;
26690;SDS011;14307;51.718;8.938;2024-01-10T13:58:38;68.82;;;61.85;;
26690;SDS011;14307;51.718;8.938;2024-01-10T14:01:05;61.97;;;56.17;;
26690;SDS011;14307;51.718;8.938;2024-01-10T14:03:33;59.85;;;54.13;;
26690;SDS011;14307;51.718;8.938;2024-01-10T14:06:00;59.00;;;53.63;;
26690;SDS011;14307;51.718;8.938;2024-01-10T14:08:27;58.55;;;53.45;;
26690;SDS011;14307;51.718;8.938;2024-01-10T14:10:55;60.67;;;55.35;;
26690;SDS011;14307;51.718;8.938;2024-01-10T14:13:31;62.55;;;55.85;;
26690;SDS011;14307;51.718;8.938;2024-01-10T14:15:58;63.92;;;57.22;;
26690;SDS011;14307;51.718;8.938;2024-01-10T14:18:26;65.97;;;59.15;;
26690;SDS011;14307;51.718;8.938;2024-01-10T14:20:53;79.72;;;65.07;;
26690;SDS011;14307;51.718;8.938;2024-01-10T14:23:21;70.63;;;62.35;;
26690;SDS011;14307;51.718;8.938;2024-01-10T14:25:48;62.53;;;56.80;;
26690;SDS011;14307;51.718;8.938;2024-01-10T14:31:16;66.28;;;59.95;;
26690;SDS011;14307;51.718;8.938;2024-01-10T14:33:59;68.03;;;61.30;;
26690;SDS011;14307;51.718;8.938;2024-01-10T14:36:26;61.35;;;55.58;;
26690;SDS011;14307;51.718;8.938;2024-01-10T14:38:54;68.55;;;62.42;;
26690;SDS011;14307;51.718;8.938;2024-01-10T14:41:22;71.85;;;65.70;;
26690;SDS011;14307;51.718;8.938;2024-01-10T14:43:52;69.82;;;63.67;;
26690;SDS011;14307;51.718;8.938;2024-01-10T14:46:19;75.22;;;68.28;;
26690;SDS011;14307;51.718;8.938;2024-01-10T14:48:47;69.40;;;62.75;;
26690;SDS011;14307;51.718;8.938;2024-01-10T14:51:14;68.80;;;62.03;;
26690;SDS011;14307;51.718;8.938;2024-01-10T14:53:41;71.90;;;64.88;;